Time;durP1;ratioP1;P1;durP2;ratioP2;P2;SDS_P1;SDS_P2;PMS_P1;PMS_P2;Temp;Humidity;BMP_temperature;BMP_pressure;BME280_temperature;BME280_humidity;BME280_pressure;Samples;Min_cycle;Max_cycle;Signal;HPM_P1;HPM_P2
2021/07/21 00:01:18;;;;;;;3.38;3.08;;;21.40;99.90;;;;;;5075118;28;20199;-81
2021/07/21 00:03:44;;;;;;;3.97;3.67;;;21.40;99.90;;;;;;5074654;28;20653;-81
2021/07/21 00:06:11;;;;;;;4.05;3.50;;;21.40;99.90;;;;;;5074383;28;20203;-81
2021/07/21 00:08:38;;;;;;;4.20;3.40;;;21.30;99.90;;;;;;5073947;28;20214;-87
2021/07/21 00:13:50;;;;;;;4.45;3.75;;;21.30;99.90;;;;;;5074631;28;20198;-80
2021/07/21 00:16:20;;;;;;;4.30;3.90;;;21.30;99.90;;;;;;5073524;28;20234;-81
2021/07/21 00:18:51;;;;;;;4.20;3.80;;;21.30;99.90;;;;;;5073752;28;20205;-81
2021/07/21 00:21:22;;;;;;;5.10;3.10;;;21.30;99.90;;;;;;5071390;28;20290;-81
2021/07/21 00:23:49;;;;;;;4.05;3.60;;;21.30;99.90;;;;;;5072510;28;20199;-81
2021/07/21 00:26:16;;;;;;;6.18;3.72;;;21.20;99.90;;;;;;5073546;28;20202;-80
2021/07/21 00:28:42;;;;;;;4.35;3.90;;;21.20;99.90;;;;;;5073567;28;20591;-81
2021/07/21 00:31:15;;;;;;;3.80;3.25;;;21.20;99.90;;;;;;5071216;28;20226;-80
2021/07/21 00:33:42;;;;;;;5.38;3.42;;;21.20;99.90;;;;;;5071663;28;20281;-86
2021/07/21 00:36:08;;;;;;;4.25;3.85;;;21.20;99.90;;;;;;5074035;28;20206;-83
2021/07/21 00:38:35;;;;;;;3.90;3.47;;;21.10;99.90;;;;;;5073960;28;20206;-83
2021/07/21 00:41:02;;;;;;;5.05;3.83;;;21.20;99.90;;;;;;5074168;28;20215;-83
2021/07/21 00:43:29;;;;;;;4.35;3.17;;;21.10;99.90;;;;;;5074325;28;20199;-82
2021/07/21 00:45:56;;;;;;;3.90;3.42;;;21.10;99.90;;;;;;5073503;28;20195;-82
2021/07/21 00:48:24;;;;;;;3.72;3.22;;;21.10;99.90;;;;;;5072316;28;20210;-83
2021/07/21 00:50:54;;;;;;;5.18;4.25;;;21.10;99.90;;;;;;5074032;28;20211;-82
2021/07/21 00:53:21;;;;;;;4.70;4.10;;;21.10;99.90;;;;;;5073983;28;20244;-82
2021/07/21 00:55:48;;;;;;;3.10;2.80;;;21.10;99.90;;;;;;5073497;28;20198;-82
2021/07/21 00:58:15;;;;;;;6.20;3.90;;;21.00;99.90;;;;;;5074041;28;20206;-82
2021/07/21 01:00:42;;;;;;;4.97;4.00;;;21.00;99.90;;;;;;5073453;28;20191;-81
2021/07/21 01:03:09;;;;;;;3.60;3.30;;;21.00;99.90;;;;;;5074270;28;20210;-82
2021/07/21 01:05:41;;;;;;;3.90;3.35;;;21.00;99.90;;;;;;5072457;28;20195;-82
2021/07/21 01:08:08;;;;;;;3.58;3.28;;;20.90;99.90;;;;;;5074048;28;20203;-83
2021/07/21 01:10:36;;;;;;;3.60;3.30;;;20.90;99.90;;;;;;5073094;28;20207;-82
2021/07/21 01:13:09;;;;;;;4.35;3.42;;;20.90;99.90;;;;;;5073621;28;20202;-83
2021/07/21 01:15:42;;;;;;;4.07;3.30;;;20.90;99.90;;;;;;5073938;28;20202;-82
2021/07/21 01:18:14;;;;;;;4.20;3.80;;;20.90;99.90;;;;;;5073789;28;20641;-82
2021/07/21 01:21:13;;;;;;;4.68;3.65;;;20.90;99.90;;;;;;5073457;28;20213;-82
2021/07/21 01:23:57;;;;;;;4.05;3.72;;;20.80;99.90;;;;;;5073047;28;20642;-85
2021/07/21 01:26:26;;;;;;;4.72;4.22;;;20.80;99.90;;;;;;5053768;28;20191;-84
2021/07/21 01:28:56;;;;;;;4.38;3.65;;;20.80;99.90;;;;;;5063256;28;20278;-84
2021/07/21 01:31:31;;;;;;;4.80;3.65;;;20.80;99.90;;;;;;5070269;28;20227;-85
2021/07/21 01:34:00;;;;;;;4.45;3.55;;;20.80;99.90;;;;;;5071125;28;20201;-83
2021/07/21 01:36:31;;;;;;;5.00;3.83;;;20.70;99.90;;;;;;5053425;28;20210;-82
2021/07/21 01:39:03;;;;;;;5.03;3.83;;;20.70;99.90;;;;;;5063669;28;20538;-83
2021/07/21 01:41:34;;;;;;;4.45;4.00;;;20.70;99.90;;;;;;5072634;28;20488;-83
2021/07/21 01:44:07;;;;;;;3.95;3.63;;;20.70;99.90;;;;;;5072933;28;20558;-78
2021/07/21 01:46:34;;;;;;;3.95;3.15;;;20.70;99.90;;;;;;5053291;28;20200;-78
2021/07/21 01:49:02;;;;;;;4.18;2.92;;;20.70;99.90;;;;;;5053157;28;20206;-78
2021/07/21 01:51:33;;;;;;;5.75;3.78;;;20.60;99.90;;;;;;5063662;28;20211;-79
2021/07/21 01:54:02;;;;;;;4.05;3.65;;;20.60;99.90;;;;;;5073157;28;20198;-78
2021/07/21 01:56:31;;;;;;;4.13;3.67;;;20.60;99.90;;;;;;5072182;28;20201;-78
2021/07/21 01:58:59;;;;;;;3.78;3.47;;;20.60;99.90;;;;;;5073093;28;20210;-78
2021/07/21 02:01:28;;;;;;;4.20;3.80;;;20.50;99.90;;;;;;5073169;28;20217;-86
2021/07/21 02:03:58;;;;;;;4.32;3.63;;;20.50;99.90;;;;;;5072818;28;20541;-87
2021/07/21 02:06:26;;;;;;;4.10;3.42;;;20.50;99.90;;;;;;5071399;28;20198;-86
2021/07/21 02:08:56;;;;;;;4.32;3.42;;;20.50;99.90;;;;;;5071838;28;20554;-85
2021/07/21 02:11:23;;;;;;;4.10;3.70;;;20.50;99.90;;;;;;5071177;28;20219;-80
2021/07/21 02:13:51;;;;;;;3.60;3.30;;;20.50;99.90;;;;;;5071557;28;20514;-85
2021/07/21 02:16:19;;;;;;;6.32;3.90;;;20.50;99.90;;;;;;5072010;28;20190;-83
2021/07/21 02:18:48;;;;;;;4.50;3.35;;;20.40;99.90;;;;;;5072000;28;20206;-86
2021/07/21 02:21:16;;;;;;;5.32;3.90;;;20.40;99.90;;;;;;5071648;28;20530;-79
2021/07/21 02:23:45;;;;;;;3.88;3.33;;;20.40;99.90;;;;;;5069303;28;20422;-80
2021/07/21 02:26:12;;;;;;;5.25;3.05;;;20.40;99.90;;;;;;5072343;28;20228;-84
2021/07/21 02:28:39;;;;;;;3.78;3.38;;;20.30;99.90;;;;;;5072883;28;20203;-83
2021/07/21 02:31:11;;;;;;;7.97;3.90;;;20.30;99.90;;;;;;5072534;28;20215;-82
2021/07/21 02:33:47;;;;;;;6.25;3.72;;;20.30;99.90;;;;;;5072909;28;20190;-83
2021/07/21 02:36:15;;;;;;;4.38;3.97;;;20.30;99.90;;;;;;5072764;28;20197;-82
2021/07/21 02:38:42;;;;;;;3.47;3.22;;;20.30;99.90;;;;;;5072936;28;20199;-82
2021/07/21 02:41:09;;;;;;;4.13;3.78;;;20.30;99.90;;;;;;5071832;28;20716;-82
2021/07/21 02:43:35;;;;;;;4.18;3.78;;;20.20;99.90;;;;;;5072652;28;20526;-82
2021/07/21 02:46:02;;;;;;;4.18;3.80;;;20.20;99.90;;;;;;5072878;28;20206;-82
2021/07/21 02:48:38;;;;;;;4.05;3.33;;;20.20;99.90;;;;;;5072858;28;20203;-82
2021/07/21 02:51:09;;;;;;;4.22;3.83;;;20.20;99.90;;;;;;5072327;28;20293;-82
2021/07/21 02:53:39;;;;;;;4.45;3.28;;;20.20;99.90;;;;;;5072593;28;20425;-82
2021/07/21 02:56:11;;;;;;;4.20;3.70;;;20.20;99.90;;;;;;5072559;28;20199;-82
2021/07/21 02:58:44;;;;;;;3.63;3.33;;;20.10;99.90;;;;;;5072850;28;20199;-83
2021/07/21 03:01:13;;;;;;;5.60;4.43;;;20.10;99.90;;;;;;5072292;28;20206;-82
2021/07/21 03:03:43;;;;;;;4.10;3.70;;;20.10;99.90;;;;;;5071911;28;20198;-86
2021/07/21 03:06:11;;;;;;;4.30;3.30;;;20.10;99.90;;;;;;5072816;28;20534;-84
2021/07/21 03:08:40;;;;;;;4.80;3.30;;;20.10;99.90;;;;;;5072870;28;20203;-84
2021/07/21 03:11:07;;;;;;;3.83;3.40;;;20.10;99.90;;;;;;5071798;28;20218;-85
2021/07/21 03:13:43;;;;;;;3.58;3.25;;;20.10;99.90;;;;;;5072233;28;20190;-82
2021/07/21 03:16:11;;;;;;;4.00;3.70;;;20.10;99.90;;;;;;5071784;28;20194;-81
2021/07/21 03:18:40;;;;;;;5.22;3.92;;;20.10;99.90;;;;;;5074387;28;20533;-81
2021/07/21 03:21:09;;;;;;;4.13;3.70;;;20.10;99.90;;;;;;5075497;28;20191;-80
2021/07/21 03:23:39;;;;;;;9.05;5.68;;;20.00;99.90;;;;;;5076215;28;20194;-83
2021/07/21 03:26:07;;;;;;;3.78;3.42;;;20.00;99.90;;;;;;5075804;28;20199;-83
2021/07/21 03:28:34;;;;;;;3.90;3.50;;;20.00;99.90;;;;;;5076078;28;20229;-82
2021/07/21 03:31:02;;;;;;;4.07;3.40;;;20.00;99.90;;;;;;5075674;28;20218;-83
2021/07/21 03:33:30;;;;;;;4.82;3.55;;;19.90;99.90;;;;;;5076248;28;20199;-86
2021/07/21 03:36:01;;;;;;;6.15;3.60;;;19.90;99.90;;;;;;5076107;28;20206;-81
2021/07/21 03:38:29;;;;;;;6.72;3.55;;;19.90;99.90;;;;;;5075226;28;20214;-80
2021/07/21 03:40:59;;;;;;;3.80;3.45;;;19.90;99.90;;;;;;5075447;28;20238;-80
2021/07/21 03:43:26;;;;;;;4.47;4.05;;;19.90;99.90;;;;;;5075746;28;20199;-80
2021/07/21 03:45:57;;;;;;;3.63;3.33;;;19.90;99.90;;;;;;5075751;28;20206;-80
2021/07/21 03:48:25;;;;;;;4.53;3.85;;;19.80;99.90;;;;;;5075634;28;20539;-80
2021/07/21 03:50:55;;;;;;;4.75;4.25;;;19.90;99.90;;;;;;5075538;28;20215;-80
2021/07/21 03:53:22;;;;;;;4.47;3.72;;;19.80;99.90;;;;;;5075465;28;20206;-80
2021/07/21 03:55:50;;;;;;;4.30;3.83;;;19.80;99.90;;;;;;5075586;28;20214;-80
2021/07/21 03:58:18;;;;;;;3.95;3.53;;;19.80;99.90;;;;;;5075511;28;20286;-78
2021/07/21 04:00:45;;;;;;;4.13;3.47;;;19.70;99.90;;;;;;5075248;28;20187;-78
2021/07/21 04:03:14;;;;;;;4.00;3.47;;;19.70;99.90;;;;;;5075354;28;20191;-77
2021/07/21 04:06:04;;;;;;;4.55;4.15;;;19.70;99.90;;;;;;5075626;28;20194;-81
2021/07/21 04:08:31;;;;;;;3.90;3.10;;;19.70;99.90;;;;;;5073725;28;20207;-83
2021/07/21 04:10:58;;;;;;;4.28;3.88;;;19.70;99.90;;;;;;5074503;28;20215;-81
2021/07/21 04:13:28;;;;;;;4.60;3.53;;;19.60;99.90;;;;;;5074304;28;20213;-83
2021/07/21 04:15:55;;;;;;;3.60;3.30;;;19.50;99.90;;;;;;5073977;28;20199;-81
2021/07/21 04:18:22;;;;;;;4.78;4.10;;;19.50;99.90;;;;;;5063722;28;20195;-80
2021/07/21 04:20:51;;;;;;;5.00;4.38;;;19.50;99.90;;;;;;5073435;28;20195;-81
2021/07/21 04:23:18;;;;;;;3.80;3.50;;;19.40;99.90;;;;;;5069667;28;20689;-81
2021/07/21 04:25:46;;;;;;;4.35;3.25;;;19.50;99.90;;;;;;5070443;28;20195;-80
2021/07/21 04:28:13;;;;;;;5.57;4.40;;;19.50;99.90;;;;;;5071486;28;20197;-80
2021/07/21 04:30:42;;;;;;;4.30;3.67;;;19.40;99.90;;;;;;5069878;28;20219;-81
2021/07/21 04:33:09;;;;;;;4.07;3.60;;;19.40;99.90;;;;;;5071423;28;20201;-81
2021/07/21 04:35:36;;;;;;;5.63;3.70;;;19.40;99.90;;;;;;5071605;28;20203;-81
2021/07/21 04:38:04;;;;;;;3.47;3.17;;;19.40;99.90;;;;;;5070830;28;20198;-81
2021/07/21 04:40:32;;;;;;;5.75;3.47;;;19.40;99.90;;;;;;5073036;28;20215;-81
2021/07/21 04:42:59;;;;;;;6.35;4.35;;;19.40;99.90;;;;;;5054370;28;20207;-81
2021/07/21 04:45:25;;;;;;;3.70;3.40;;;19.40;99.90;;;;;;5073213;28;20199;-82
2021/07/21 04:47:55;;;;;;;3.88;3.53;;;19.40;99.90;;;;;;5072716;28;20202;-82
2021/07/21 04:50:23;;;;;;;5.70;4.13;;;19.40;99.90;;;;;;5073191;28;20203;-82
2021/07/21 04:52:51;;;;;;;3.63;3.30;;;19.40;99.90;;;;;;5073970;28;20252;-84
2021/07/21 04:55:18;;;;;;;3.88;3.47;;;19.40;99.90;;;;;;5074149;28;20194;-85
2021/07/21 04:57:48;;;;;;;4.72;3.75;;;19.30;99.90;;;;;;5074111;28;20523;-85
2021/07/21 05:00:15;;;;;;;4.78;3.25;;;19.40;99.90;;;;;;5074438;28;20206;-83
2021/07/21 05:02:42;;;;;;;6.00;4.68;;;19.40;99.90;;;;;;5074156;28;20194;-82
2021/07/21 05:05:12;;;;;;;4.25;3.50;;;19.40;99.90;;;;;;5074449;28;20194;-84
2021/07/21 05:07:38;;;;;;;4.28;3.78;;;19.30;99.90;;;;;;5073595;28;20242;-83
2021/07/21 05:10:06;;;;;;;5.13;4.20;;;19.40;99.90;;;;;;5073970;28;20515;-84
2021/07/21 05:12:33;;;;;;;4.53;3.90;;;19.30;99.90;;;;;;5073778;28;20215;-82
2021/07/21 05:14:59;;;;;;;5.20;3.45;;;19.40;99.90;;;;;;5073622;28;20523;-84
2021/07/21 05:17:27;;;;;;;5.35;4.50;;;19.30;99.90;;;;;;5073835;28;20201;-85
2021/07/21 05:19:54;;;;;;;4.05;3.72;;;19.40;99.90;;;;;;5073683;28;20198;-85
2021/07/21 05:22:22;;;;;;;3.97;3.45;;;19.40;99.90;;;;;;5073264;28;20203;-85
2021/07/21 05:24:49;;;;;;;5.22;4.00;;;19.40;99.90;;;;;;5073491;28;20504;-86
2021/07/21 05:27:15;;;;;;;3.90;3.50;;;19.30;99.90;;;;;;5073461;28;20209;-84
2021/07/21 05:29:43;;;;;;;3.75;3.45;;;19.30;99.90;;;;;;5073179;28;20199;-85
2021/07/21 05:32:10;;;;;;;4.93;3.80;;;19.30;99.90;;;;;;5073162;28;20554;-84
2021/07/21 05:34:36;;;;;;;5.10;3.55;;;19.40;99.90;;;;;;5073175;28;20195;-84
2021/07/21 05:37:04;;;;;;;5.38;3.55;;;19.40;99.90;;;;;;5073185;28;20202;-83
2021/07/21 05:39:32;;;;;;;5.28;3.75;;;19.30;99.90;;;;;;5073003;28;20230;-84
2021/07/21 05:41:59;;;;;;;3.33;3.03;;;19.30;99.90;;;;;;5072352;28;20215;-84
2021/07/21 05:44:26;;;;;;;4.88;4.43;;;19.40;99.90;;;;;;5073003;28;20195;-85
2021/07/21 05:46:52;;;;;;;4.20;3.78;;;19.40;99.90;;;;;;5073097;28;20202;-85
2021/07/21 05:49:19;;;;;;;4.38;3.65;;;19.40;99.90;;;;;;5073180;28;20206;-84
2021/07/21 05:51:46;;;;;;;5.07;4.20;;;19.30;99.90;;;;;;5073001;28;20672;-86
2021/07/21 05:54:14;;;;;;;4.18;3.42;;;19.30;99.90;;;;;;5073277;28;20217;-85
2021/07/21 05:56:42;;;;;;;4.05;3.67;;;19.30;99.90;;;;;;5072399;28;20277;-86
2021/07/21 05:59:09;;;;;;;7.25;4.10;;;19.30;99.90;;;;;;5073351;28;20198;-85
2021/07/21 06:01:36;;;;;;;6.68;3.70;;;19.30;99.90;;;;;;5073126;28;20198;-85
2021/07/21 06:04:02;;;;;;;3.85;3.13;;;19.40;99.90;;;;;;5072108;28;20639;-85
2021/07/21 06:06:29;;;;;;;3.50;3.17;;;19.40;99.90;;;;;;5071725;28;20198;-85
2021/07/21 06:08:56;;;;;;;4.60;4.20;;;19.50;99.90;;;;;;5071774;28;20209;-85
2021/07/21 06:11:23;;;;;;;5.95;4.70;;;19.50;99.90;;;;;;5071110;28;20214;-85
2021/07/21 06:13:52;;;;;;;4.57;3.75;;;19.40;99.90;;;;;;5071218;28;20531;-83
2021/07/21 06:16:19;;;;;;;3.67;3.30;;;19.40;99.90;;;;;;5071472;28;20685;-84
2021/07/21 06:18:45;;;;;;;5.90;4.57;;;19.40;99.90;;;;;;5069871;28;20192;-84
2021/07/21 06:21:12;;;;;;;4.60;4.10;;;19.40;99.90;;;;;;5068476;28;20191;-82
2021/07/21 06:23:39;;;;;;;7.10;4.97;;;19.40;99.90;;;;;;5066557;28;20202;-82
2021/07/21 06:26:06;;;;;;;4.93;3.70;;;19.40;99.90;;;;;;5068031;28;20202;-80
2021/07/21 06:28:34;;;;;;;4.07;3.67;;;19.40;99.90;;;;;;5069800;28;20707;-81
2021/07/21 06:31:02;;;;;;;5.03;4.38;;;19.40;99.90;;;;;;5068355;28;20195;-81
2021/07/21 06:33:29;;;;;;;8.85;4.20;;;19.40;99.90;;;;;;5069128;28;20548;-81
2021/07/21 06:35:55;;;;;;;4.40;4.00;;;19.40;99.90;;;;;;5070948;28;20198;-82
2021/07/21 06:38:22;;;;;;;4.85;4.07;;;19.40;99.90;;;;;;5072265;28;20368;-81
2021/07/21 06:40:49;;;;;;;4.30;3.60;;;19.40;99.90;;;;;;5071896;28;20215;-81
2021/07/21 06:43:15;;;;;;;5.40;4.10;;;19.50;99.90;;;;;;5072533;28;20194;-84
2021/07/21 06:45:42;;;;;;;6.03;3.72;;;19.50;99.90;;;;;;5072250;28;20198;-87
2021/07/21 06:48:11;;;;;;;6.32;4.50;;;19.60;99.90;;;;;;5072635;28;20665;-84
2021/07/21 06:50:37;;;;;;;3.47;2.78;;;19.60;99.90;;;;;;5072482;28;20199;-84
2021/07/21 06:53:04;;;;;;;6.50;3.90;;;19.70;99.90;;;;;;5072185;28;20211;-83
2021/07/21 06:55:31;;;;;;;4.00;3.55;;;19.70;99.90;;;;;;5076253;28;20198;-82
2021/07/21 06:57:58;;;;;;;12.80;4.25;;;19.80;99.90;;;;;;5074345;28;20622;-80
2021/07/21 07:00:25;;;;;;;4.30;3.75;;;19.80;99.90;;;;;;5076050;28;20195;-76
2021/07/21 07:02:52;;;;;;;5.53;4.13;;;19.80;99.90;;;;;;5072948;28;20653;-80
2021/07/21 07:05:20;;;;;;;3.95;3.58;;;19.80;99.90;;;;;;5068946;28;20195;-82
2021/07/21 07:07:46;;;;;;;3.72;3.33;;;19.80;99.90;;;;;;5068294;28;20221;-79
2021/07/21 07:10:18;;;;;;;5.03;4.03;;;19.90;99.90;;;;;;5074737;28;20203;-81
2021/07/21 07:12:45;;;;;;;3.35;3.05;;;19.90;99.90;;;;;;5075673;28;20264;-77
2021/07/21 07:15:12;;;;;;;7.93;4.65;;;19.90;99.90;;;;;;5075145;28;20206;-76
2021/07/21 07:17:39;;;;;;;3.33;3.03;;;19.90;99.90;;;;;;5071023;28;20518;-77
2021/07/21 07:20:07;;;;;;;4.80;3.25;;;19.80;99.90;;;;;;5073881;28;20191;-77
2021/07/21 07:22:35;;;;;;;3.72;3.42;;;19.90;99.90;;;;;;5073535;28;20622;-76
2021/07/21 07:25:02;;;;;;;4.47;3.30;;;19.90;99.90;;;;;;5074508;28;20250;-81
2021/07/21 07:27:29;;;;;;;4.93;3.42;;;20.00;99.90;;;;;;5075254;28;20202;-78
2021/07/21 07:29:56;;;;;;;4.63;3.75;;;20.10;99.90;;;;;;5075116;28;20198;-77
2021/07/21 07:32:22;;;;;;;3.72;3.42;;;20.20;99.90;;;;;;5074767;28;20214;-78
2021/07/21 07:34:49;;;;;;;4.30;3.63;;;20.20;99.90;;;;;;5074510;28;20218;-77
2021/07/21 07:37:16;;;;;;;4.10;3.75;;;20.30;99.90;;;;;;5074990;28;20203;-77
2021/07/21 07:39:44;;;;;;;3.75;3.35;;;20.30;99.90;;;;;;5074419;28;20630;-78
2021/07/21 07:42:12;;;;;;;4.35;3.95;;;20.40;99.90;;;;;;5070052;28;20271;-85
2021/07/21 07:44:39;;;;;;;4.25;3.13;;;20.50;99.90;;;;;;5073287;28;20553;-83
2021/07/21 07:47:06;;;;;;;3.65;3.05;;;20.50;99.90;;;;;;5072239;28;20191;-82
2021/07/21 07:49:33;;;;;;;6.07;3.53;;;20.60;99.90;;;;;;5072096;28;20198;-87
2021/07/21 07:52:00;;;;;;;3.53;2.80;;;20.60;99.90;;;;;;5073864;28;20223;-86
2021/07/21 07:54:28;;;;;;;4.22;3.58;;;20.70;99.90;;;;;;5074499;28;20206;-90
2021/07/21 07:56:56;;;;;;;3.22;2.80;;;20.70;99.90;;;;;;5060135;28;20199;-90
2021/07/21 07:59:23;;;;;;;3.58;2.95;;;20.80;99.90;;;;;;5075872;28;20248;-88
2021/07/21 08:01:49;;;;;;;5.03;4.25;;;20.90;99.90;;;;;;5075652;28;20193;-87
2021/07/21 08:04:16;;;;;;;9.65;7.30;;;21.00;99.90;;;;;;5075389;28;20209;-86
2021/07/21 08:06:43;;;;;;;5.00;4.50;;;21.00;99.90;;;;;;5072696;28;20210;-79
2021/07/21 08:09:13;;;;;;;8.55;4.93;;;21.10;99.90;;;;;;5075039;28;20195;-84
2021/07/21 08:11:42;;;;;;;7.40;4.07;;;21.20;99.90;;;;;;5075839;28;20280;-94
2021/07/21 08:14:10;;;;;;;5.95;3.75;;;21.20;99.90;;;;;;5076702;28;20203;-90
2021/07/21 08:16:37;;;;;;;4.95;4.35;;;21.30;99.90;;;;;;5073891;28;20198;-85
2021/07/21 08:19:04;;;;;;;3.83;3.40;;;21.40;99.90;;;;;;5075160;28;20210;-83
2021/07/21 08:21:31;;;;;;;10.30;7.20;;;21.40;99.90;;;;;;5075062;28;20191;-86
2021/07/21 08:23:58;;;;;;;8.85;5.15;;;21.50;99.90;;;;;;5074873;28;20445;-87
2021/07/21 08:26:24;;;;;;;10.57;5.95;;;21.50;99.90;;;;;;5069359;28;20281;-81
2021/07/21 08:28:51;;;;;;;10.23;6.15;;;21.60;99.90;;;;;;5071471;28;20199;-87
2021/07/21 08:31:19;;;;;;;7.30;4.90;;;21.60;99.90;;;;;;5069685;28;20229;-88
2021/07/21 08:33:46;;;;;;;5.45;4.25;;;21.70;99.90;;;;;;5069018;28;20482;-90
2021/07/21 08:36:13;;;;;;;5.93;5.00;;;21.80;99.90;;;;;;5071922;28;20199;-89
2021/07/21 08:38:40;;;;;;;11.48;4.70;;;21.80;99.90;;;;;;5073627;28;20202;-89
2021/07/21 08:41:07;;;;;;;5.82;5.25;;;21.80;99.90;;;;;;5074539;28;20728;-90
2021/07/21 08:43:37;;;;;;;6.90;4.87;;;21.90;99.90;;;;;;5074504;28;20213;-89
2021/07/21 08:46:05;;;;;;;5.07;4.35;;;21.90;99.90;;;;;;5075449;28;20529;-90
2021/07/21 08:48:33;;;;;;;4.55;4.13;;;22.00;99.90;;;;;;5074250;28;20197;-90
2021/07/21 08:51:00;;;;;;;5.00;4.17;;;22.00;99.90;;;;;;5073908;28;20234;-90
2021/07/21 08:53:27;;;;;;;4.90;4.40;;;22.10;99.90;;;;;;5073919;28;20808;-88
2021/07/21 08:55:55;;;;;;;5.10;4.07;;;22.10;99.90;;;;;;5074384;28;20441;-89
2021/07/21 08:58:22;;;;;;;4.97;4.37;;;22.20;99.90;;;;;;5074958;28;20510;-90
2021/07/21 09:00:51;;;;;;;4.27;3.87;;;22.20;99.90;;;;;;5075402;28;20539;-88
2021/07/21 09:03:19;;;;;;;4.83;4.33;;;22.30;99.90;;;;;;5075243;28;20446;-90
2021/07/21 09:05:49;;;;;;;4.37;3.60;;;22.30;99.90;;;;;;5075500;28;20445;-90
2021/07/21 09:08:17;;;;;;;4.93;4.20;;;22.30;99.90;;;;;;5074688;28;20469;-89
2021/07/21 09:10:45;;;;;;;5.70;5.00;;;22.40;99.90;;;;;;5076433;28;20468;-90
2021/07/21 09:13:13;;;;;;;4.97;4.47;;;22.50;99.90;;;;;;5075693;28;20519;-90
2021/07/21 09:15:42;;;;;;;4.17;3.87;;;22.50;99.90;;;;;;5068793;28;20811;-90
2021/07/21 09:18:11;;;;;;;4.50;3.37;;;22.50;99.90;;;;;;5072141;28;20510;-89
2021/07/21 09:20:39;;;;;;;7.60;4.40;;;22.50;99.90;;;;;;5075418;28;20445;-92
2021/07/21 09:23:10;;;;;;;4.60;3.93;;;22.60;99.90;;;;;;5075548;28;20449;-92
2021/07/21 09:25:39;;;;;;;5.10;3.90;;;22.60;99.90;;;;;;5074944;28;20460;-91
2021/07/21 09:28:10;;;;;;;5.33;4.03;;;22.60;99.90;;;;;;5074510;28;20452;-91
2021/07/21 09:30:39;;;;;;;4.13;3.80;;;22.70;99.90;;;;;;5074452;28;20448;-89
2021/07/21 09:33:07;;;;;;;5.50;3.67;;;22.70;99.90;;;;;;5074615;28;20495;-92
2021/07/21 09:35:35;;;;;;;4.23;3.43;;;22.80;99.90;;;;;;5075818;28;20436;-91
2021/07/21 09:38:05;;;;;;;5.83;3.87;;;22.90;99.90;;;;;;5075406;28;20445;-92
2021/07/21 09:40:34;;;;;;;5.17;4.00;;;22.90;99.90;;;;;;5075160;28;20491;-91
2021/07/21 09:43:01;;;;;;;4.40;3.97;;;22.90;99.90;;;;;;5073739;28;20931;-83
2021/07/21 09:45:28;;;;;;;3.73;3.33;;;23.00;99.90;;;;;;5077842;28;20453;-86
2021/07/21 09:47:58;;;;;;;3.70;3.40;;;23.10;99.90;;;;;;5067144;28;20529;-90
2021/07/21 09:50:27;;;;;;;5.17;3.37;;;23.10;99.90;;;;;;5072703;28;20486;-90
2021/07/21 09:52:56;;;;;;;5.03;4.60;;;23.10;99.90;;;;;;5075174;28;20872;-90
2021/07/21 09:55:24;;;;;;;4.70;3.70;;;23.10;99.90;;;;;;5073650;28;20516;-90
2021/07/21 09:58:04;;;;;;;4.10;3.40;;;23.00;99.90;;;;;;5064534;28;20445;-88
2021/07/21 10:00:33;;;;;;;4.50;3.87;;;23.00;99.90;;;;;;5060780;28;20433;-91
2021/07/21 10:03:10;;;;;;;3.90;3.40;;;23.00;99.90;;;;;;5072767;28;20923;-84
2021/07/21 10:05:51;;;;;;;3.67;3.37;;;23.00;99.90;;;;;;5070087;28;20471;-86
2021/07/21 10:08:26;;;;;;;3.70;3.37;;;22.90;99.90;;;;;;5072720;28;20942;-81
2021/07/21 10:10:53;;;;;;;4.77;4.30;;;22.90;99.90;;;;;;5063560;28;20475;-79
2021/07/21 10:13:21;;;;;;;4.30;3.40;;;22.90;99.90;;;;;;5073295;28;20569;-89
2021/07/21 10:15:49;;;;;;;6.10;3.30;;;22.80;99.90;;;;;;5073771;28;20464;-84
2021/07/21 10:18:17;;;;;;;5.90;4.17;;;22.80;99.90;;;;;;5059915;28;20855;-84
2021/07/21 10:20:46;;;;;;;4.60;4.17;;;22.80;99.90;;;;;;5054079;28;20442;-86
2021/07/21 10:23:15;;;;;;;6.37;3.50;;;22.80;99.90;;;;;;5052795;28;20457;-84
2021/07/21 10:25:43;;;;;;;4.80;4.30;;;22.70;99.90;;;;;;5060688;28;20445;-83
2021/07/21 10:28:10;;;;;;;3.47;3.17;;;22.80;99.90;;;;;;5059938;28;20452;-81
2021/07/21 10:30:40;;;;;;;6.30;3.53;;;22.80;99.90;;;;;;5052748;28;20437;-83
2021/07/21 10:33:07;;;;;;;4.87;4.17;;;22.70;99.90;;;;;;5052277;28;20482;-87
2021/07/21 10:35:34;;;;;;;4.47;3.60;;;22.70;99.90;;;;;;5053040;28;20786;-88
2021/07/21 10:38:00;;;;;;;3.07;2.77;;;22.70;99.90;;;;;;5056223;28;20444;-88
2021/07/21 10:40:32;;;;;;;4.03;3.70;;;22.70;99.90;;;;;;5051797;28;20457;-88
2021/07/21 10:43:01;;;;;;;5.30;4.00;;;22.70;99.90;;;;;;5060746;28;20448;-90
2021/07/21 10:45:33;;;;;;;5.37;4.50;;;22.70;99.90;;;;;;5071292;28;20460;-80
2021/07/21 10:48:08;;;;;;;4.47;4.07;;;22.70;99.90;;;;;;5071435;28;20457;-86
2021/07/21 10:50:52;;;;;;;4.40;3.30;;;22.70;99.90;;;;;;5071867;28;20555;-89
2021/07/21 10:53:36;;;;;;;4.30;3.90;;;22.70;99.90;;;;;;5071966;28;20465;-89
2021/07/21 10:59:18;;;;;;;3.60;3.30;;;22.70;99.90;;;;;;5061980;28;20449;-89
2021/07/21 11:01:46;;;;;;;3.67;3.07;;;22.70;99.90;;;;;;5061890;28;20928;-90
2021/07/21 11:04:15;;;;;;;5.20;4.70;;;22.70;99.90;;;;;;5072339;28;20445;-85
2021/07/21 11:06:43;;;;;;;4.90;3.67;;;23.00;99.90;;;;;;5071883;28;20445;-87
2021/07/21 11:09:24;;;;;;;5.30;4.80;;;22.80;99.90;;;;;;5067768;28;20828;-85
2021/07/21 11:11:54;;;;;;;6.27;4.53;;;22.70;99.90;;;;;;5068711;28;20792;-85
2021/07/21 11:14:23;;;;;;;4.70;3.70;;;22.70;99.90;;;;;;5072031;28;20487;-88
2021/07/21 11:16:51;;;;;;;4.83;3.30;;;22.70;99.90;;;;;;5071286;28;20682;-88
2021/07/21 11:19:46;;;;;;;4.80;4.30;;;22.80;99.90;;;;;;5071242;28;20911;-88
2021/07/21 11:22:26;;;;;;;4.80;4.30;;;22.80;99.90;;;;;;5055619;28;20446;-86
2021/07/21 11:25:14;;;;;;;4.00;3.53;;;22.80;99.90;;;;;;5070553;28;20451;-91
2021/07/21 11:27:51;;;;;;;4.63;3.93;;;22.80;99.90;;;;;;5071380;28;20436;-93
2021/07/21 11:30:44;;;;;;;4.17;3.77;;;22.90;99.90;;;;;;5072386;28;20425;-94
2021/07/21 11:33:48;;;;;;;4.10;3.70;;;22.90;99.90;;;;;;5071341;28;20469;-85
2021/07/21 11:36:56;;;;;;;4.70;3.87;;;22.90;99.90;;;;;;5072318;28;20506;-86
2021/07/21 11:39:35;;;;;;;4.00;3.60;;;22.90;99.90;;;;;;5066088;28;20780;-85
2021/07/21 11:42:02;;;;;;;4.47;4.07;;;23.00;99.90;;;;;;5056401;28;20473;-94
2021/07/21 11:44:31;;;;;;;4.83;4.33;;;23.00;99.90;;;;;;5064167;28;20441;-94
2021/07/21 11:46:59;;;;;;;4.70;4.07;;;23.20;99.90;;;;;;5074672;28;20473;-87
2021/07/21 11:49:30;;;;;;;4.20;3.80;;;23.00;99.90;;;;;;5075888;28;20456;-87
2021/07/21 11:51:59;;;;;;;5.20;4.17;;;23.10;99.90;;;;;;5075429;28;20449;-84
2021/07/21 11:54:28;;;;;;;3.73;3.00;;;23.00;99.90;;;;;;5074668;28;20492;-90
2021/07/21 11:56:56;;;;;;;4.30;3.90;;;23.10;99.90;;;;;;5075791;28;20522;-91
2021/07/21 11:59:28;;;;;;;4.07;3.63;;;23.10;99.90;;;;;;5074777;28;20776;-85
2021/07/21 12:02:06;;;;;;;4.20;3.80;;;23.10;99.90;;;;;;5069572;28;20523;-90
2021/07/21 12:04:33;;;;;;;4.67;4.17;;;23.20;99.90;;;;;;5050400;28;20433;-88
2021/07/21 12:07:01;;;;;;;5.10;4.50;;;23.00;99.90;;;;;;5067363;28;20433;-89
2021/07/21 12:09:28;;;;;;;3.80;3.50;;;23.20;99.90;;;;;;5073472;28;20884;-78
2021/07/21 12:11:57;;;;;;;3.93;3.60;;;23.20;99.90;;;;;;5074045;28;20448;-81
2021/07/21 12:14:25;;;;;;;4.33;3.93;;;23.30;99.90;;;;;;5075213;28;20476;-91
2021/07/21 12:16:53;;;;;;;4.97;4.00;;;23.20;99.90;;;;;;5065413;28;20461;-92
2021/07/21 12:19:26;;;;;;;5.37;4.33;;;23.30;99.90;;;;;;5071533;28;20520;-82
2021/07/21 12:22:08;;;;;;;3.70;3.40;;;23.50;99.90;;;;;;5074397;28;20468;-78
2021/07/21 12:24:37;;;;;;;4.70;4.30;;;23.40;99.90;;;;;;5074617;28;20464;-90
2021/07/21 12:27:05;;;;;;;3.97;3.60;;;23.40;99.90;;;;;;5075582;28;20456;-92
2021/07/21 12:29:31;;;;;;;5.00;4.50;;;23.40;99.90;;;;;;5071191;28;20461;-77
2021/07/21 12:32:10;;;;;;;4.73;4.23;;;23.40;99.90;;;;;;5075176;28;20460;-79
2021/07/21 12:34:39;;;;;;;4.20;3.77;;;23.40;99.90;;;;;;5072026;28;20468;-80
2021/07/21 12:37:09;;;;;;;4.67;4.23;;;23.50;99.90;;;;;;5074724;28;20445;-77
2021/07/21 12:39:36;;;;;;;4.43;4.03;;;23.50;99.90;;;;;;5073147;28;20465;-81
2021/07/21 12:42:08;;;;;;;3.93;3.60;;;23.50;99.90;;;;;;5070959;28;20477;-90
2021/07/21 12:44:43;;;;;;;4.27;3.43;;;23.50;99.90;;;;;;5071670;28;20442;-88
2021/07/21 12:47:18;;;;;;;4.40;4.00;;;23.60;99.90;;;;;;5062092;28;20461;-81
2021/07/21 12:49:47;;;;;;;4.37;3.60;;;23.60;99.90;;;;;;5064616;28;20531;-84
2021/07/21 12:52:19;;;;;;;3.57;3.10;;;23.60;99.90;;;;;;5074778;28;20468;-78
2021/07/21 12:54:50;;;;;;;4.07;3.67;;;23.60;99.90;;;;;;5069395;28;20481;-81
2021/07/21 12:57:32;;;;;;;4.00;3.60;;;23.60;99.90;;;;;;5073820;28;20460;-83
2021/07/21 13:00:03;;;;;;;5.70;4.27;;;23.80;99.90;;;;;;5073696;28;20491;-82
2021/07/21 13:02:31;;;;;;;4.20;3.80;;;23.70;99.90;;;;;;5071416;28;20445;-84